createdAt,value
2018-10-01T00:00:56.220Z,10.09
2018-10-01T00:01:56.218Z,10.12
2018-10-01T00:02:56.205Z,10.05
2018-10-01T00:03:56.184Z,10.12
2018-10-01T00:04:56.185Z,10.05
2018-10-01T00:05:56.166Z,10.13
2018-10-01T00:06:56.145Z,10.12
2018-10-01T00:07:56.136Z,10.16
2018-10-01T00:08:56.126Z,10.15
2018-10-01T00:09:56.134Z,10.15
2018-10-01T00:10:56.104Z,10.13
2018-10-01T00:11:56.098Z,10.20
2018-10-01T00:12:56.086Z,10.16
2018-10-01T00:13:56.076Z,10.15
2018-10-01T00:14:56.069Z,10.16
2018-10-01T00:15:56.063Z,10.22
2018-10-01T00:16:56.049Z,10.23
2018-10-01T00:17:56.045Z,10.15
2018-10-01T00:18:56.022Z,10.30
2018-10-01T00:19:56.019Z,10.17
2018-10-01T00:20:55.993Z,10.25
2018-10-01T00:21:55.988Z,10.25
2018-10-01T00:22:55.965Z,10.25
2018-10-01T00:23:55.953Z,10.22
2018-10-01T00:24:55.949Z,10.26
2018-10-01T00:25:55.953Z,10.22
2018-10-01T00:26:55.923Z,10.20
2018-10-01T00:27:55.908Z,10.31
2018-10-01T00:28:55.904Z,10.25
2018-10-01T00:29:55.890Z,10.20
2018-10-01T00:30:55.910Z,10.23
2018-10-01T00:31:55.869Z,10.31
2018-10-01T00:32:55.853Z,10.26
2018-10-01T00:33:55.842Z,10.25
2018-10-01T00:34:55.840Z,10.22
2018-10-01T00:35:55.837Z,10.26
2018-10-01T00:36:55.809Z,10.23
2018-10-01T00:37:55.805Z,10.25
2018-10-01T00:38:55.806Z,10.26
2018-10-01T00:39:55.773Z,10.25
2018-10-01T00:40:55.787Z,10.25
2018-10-01T00:41:55.759Z,10.23
2018-10-01T00:42:55.749Z,10.25
2018-10-01T00:43:55.758Z,10.23
2018-10-01T00:44:55.716Z,10.25
2018-10-01T00:45:55.737Z,10.23
2018-10-01T00:46:55.690Z,10.25
2018-10-01T00:47:55.682Z,10.31
2018-10-01T00:48:55.694Z,10.19
2018-10-01T00:49:55.664Z,10.26
2018-10-01T00:50:55.684Z,10.22
2018-10-01T00:51:55.645Z,10.28
2018-10-01T00:52:55.624Z,10.31
2018-10-01T00:53:55.624Z,10.26
2018-10-01T00:54:55.614Z,10.20
2018-10-01T00:55:55.619Z,10.26
2018-10-01T00:56:55.592Z,10.30
2018-10-01T00:57:55.585Z,10.40
2018-10-01T00:58:55.562Z,10.35
2018-10-01T00:59:55.579Z,10.33
2018-10-01T01:00:55.533Z,10.31
2018-10-01T01:01:55.551Z,10.40
2018-10-01T01:02:55.518Z,10.35
2018-10-01T01:03:55.508Z,10.34
2018-10-01T01:04:55.495Z,10.35
2018-10-01T01:05:55.488Z,10.37
2018-10-01T01:06:55.494Z,10.37
2018-10-01T01:07:55.459Z,10.42
2018-10-01T01:08:55.445Z,10.41
2018-10-01T01:09:55.434Z,10.35
2018-10-01T01:10:55.421Z,10.34
2018-10-01T01:11:55.426Z,10.40
2018-10-01T01:12:55.410Z,10.30
2018-10-01T01:13:55.398Z,10.41
2018-10-01T01:14:55.394Z,10.35
2018-10-01T01:15:55.363Z,10.31
2018-10-01T01:16:55.376Z,10.35
2018-10-01T01:17:55.352Z,10.34
2018-10-01T01:18:55.341Z,10.38
2018-10-01T01:19:55.324Z,10.44
2018-10-01T01:20:55.311Z,10.40
2018-10-01T01:21:55.310Z,10.31
2018-10-01T01:22:55.304Z,10.41
2018-10-01T01:23:55.282Z,10.30
2018-10-01T01:24:55.280Z,10.42
2018-10-01T01:25:55.254Z,10.33
2018-10-01T01:26:55.274Z,10.28
2018-10-01T01:27:55.229Z,10.33
2018-10-01T01:28:55.235Z,10.41
2018-10-01T01:29:55.215Z,10.33
2018-10-01T01:30:55.202Z,10.33
2018-10-01T01:31:55.199Z,10.30
2018-10-01T01:32:55.191Z,10.28
2018-10-01T01:33:55.174Z,10.28
2018-10-01T01:34:55.149Z,10.23
2018-10-01T01:35:55.141Z,10.30
2018-10-01T01:36:55.134Z,10.23
2018-10-01T01:37:55.134Z,10.25
2018-10-01T01:38:55.109Z,10.30
2018-10-01T01:39:55.099Z,10.28
2018-10-01T01:40:55.092Z,10.25
2018-10-01T01:41:55.072Z,10.22
2018-10-01T01:42:55.075Z,10.22
2018-10-01T01:43:55.061Z,10.33
2018-10-01T01:44:55.040Z,10.26
2018-10-01T01:45:55.027Z,10.25
2018-10-01T01:46:55.036Z,10.22
2018-10-01T01:47:55.018Z,10.23
2018-10-01T01:48:54.994Z,10.28
2018-10-01T01:49:54.986Z,10.23
2018-10-01T01:50:54.971Z,10.28
2018-10-01T01:51:54.958Z,10.19
2018-10-01T01:52:54.992Z,10.23
2018-10-01T01:53:54.937Z,10.23
2018-10-01T01:54:54.928Z,10.20
2018-10-01T01:55:54.914Z,10.20
2018-10-01T01:56:54.925Z,10.15
2018-10-01T01:57:54.922Z,10.15
2018-10-01T01:58:54.904Z,10.22
2018-10-01T01:59:54.865Z,10.23
2018-10-01T02:00:54.864Z,10.20
2018-10-01T02:01:54.848Z,10.20
2018-10-01T02:02:54.834Z,10.23
2018-10-01T02:03:54.841Z,10.16
2018-10-01T02:04:54.816Z,10.17
2018-10-01T02:05:54.808Z,10.17
2018-10-01T02:06:54.792Z,10.20
2018-10-01T02:07:54.801Z,10.19
2018-10-01T02:08:54.788Z,10.19
2018-10-01T02:09:54.765Z,10.19
2018-10-01T02:10:54.763Z,10.20
2018-10-01T02:11:54.738Z,10.15
2018-10-01T02:12:54.730Z,10.22
2018-10-01T02:13:54.730Z,10.15
2018-10-01T02:14:54.715Z,10.13
2018-10-01T02:15:54.687Z,10.07
2018-10-01T02:16:54.677Z,10.12
2018-10-01T02:17:54.676Z,10.05
2018-10-01T02:18:54.673Z,10.13
2018-10-01T02:19:54.648Z,10.04
2018-10-01T02:20:54.640Z,10.01
2018-10-01T02:21:54.619Z,10.09
2018-10-01T02:22:54.617Z,10.04
2018-10-01T02:23:54.629Z,10.02
2018-10-01T02:24:54.588Z,9.98
2018-10-01T02:25:54.589Z,10.07
2018-10-01T02:26:54.567Z,9.98
2018-10-01T02:27:54.555Z,10.04
2018-10-01T02:28:54.561Z,10.04
2018-10-01T02:29:54.532Z,10.01
2018-10-01T02:30:54.521Z,9.97
2018-10-01T02:31:54.513Z,9.98
2018-10-01T02:32:54.510Z,10.02
2018-10-01T02:33:54.517Z,10.01
2018-10-01T02:34:54.501Z,10.05
2018-10-01T02:35:54.469Z,9.99
2018-10-01T02:36:54.459Z,9.97
2018-10-01T02:37:54.471Z,9.91
2018-10-01T02:38:54.427Z,9.98
2018-10-01T02:39:54.434Z,9.98
2018-10-01T02:40:54.427Z,9.94
2018-10-01T02:41:54.418Z,9.94
2018-10-01T02:42:54.387Z,9.97
2018-10-01T02:43:54.384Z,9.89
2018-10-01T02:44:54.387Z,9.91
2018-10-01T02:45:54.358Z,9.89
2018-10-01T02:46:54.348Z,9.87
2018-10-01T02:47:54.455Z,9.89
2018-10-01T02:48:54.325Z,9.87
2018-10-01T02:49:54.339Z,9.84
2018-10-01T02:50:54.301Z,9.77
2018-10-01T02:51:54.288Z,9.80
2018-10-01T02:52:54.279Z,9.77
2018-10-01T02:53:54.280Z,9.69
2018-10-01T02:54:54.267Z,9.76
2018-10-01T02:55:54.240Z,9.77
2018-10-01T02:56:54.242Z,9.79
2018-10-01T02:57:54.216Z,9.79
2018-10-01T02:58:54.207Z,9.82
2018-10-01T02:59:54.207Z,9.77
2018-10-01T03:00:54.183Z,9.76
2018-10-01T03:01:54.168Z,9.66
2018-10-01T03:02:54.160Z,9.62
2018-10-01T03:03:54.149Z,9.64
2018-10-01T03:04:54.171Z,9.65
2018-10-01T03:05:54.145Z,9.68
2018-10-01T03:06:54.112Z,9.68
2018-10-01T03:07:54.108Z,9.69
2018-10-01T03:08:54.090Z,9.69
2018-10-01T03:09:54.085Z,9.69
2018-10-01T03:10:54.085Z,9.65
2018-10-01T03:11:54.057Z,9.66
2018-10-01T03:12:54.046Z,9.62
2018-10-01T03:13:54.044Z,9.66
2018-10-01T03:14:54.028Z,9.59
2018-10-01T03:15:54.043Z,9.68
2018-10-01T03:16:54.012Z,9.61
2018-10-01T03:17:53.988Z,9.59
2018-10-01T03:18:53.983Z,9.51
2018-10-01T03:19:53.964Z,9.59
2018-10-01T03:20:53.969Z,9.56
2018-10-01T03:21:53.943Z,9.54
2018-10-01T03:22:53.939Z,9.47
2018-10-01T03:23:53.924Z,9.55
2018-10-01T03:24:53.915Z,9.50
2018-10-01T03:25:53.921Z,9.43
2018-10-01T03:26:53.890Z,9.43
2018-10-01T03:27:53.868Z,9.44
2018-10-01T03:28:53.864Z,9.37
2018-10-01T03:29:53.854Z,9.36
2018-10-01T03:30:53.868Z,9.21
2018-10-01T03:31:53.831Z,9.28
2018-10-01T03:32:53.818Z,9.23
2018-10-01T03:33:53.817Z,9.26
2018-10-01T03:34:53.791Z,9.19
2018-10-01T03:35:53.801Z,9.21
2018-10-01T03:36:53.794Z,9.21
2018-10-01T03:37:53.774Z,9.21
2018-10-01T03:38:53.758Z,9.22
2018-10-01T03:39:53.797Z,9.19
2018-10-01T03:40:53.770Z,9.22
2018-10-01T03:41:53.711Z,9.23
2018-10-01T03:42:53.709Z,9.18
2018-10-01T03:43:53.715Z,9.29
2018-10-01T03:44:53.681Z,9.18
2018-10-01T03:45:53.671Z,9.13
2018-10-01T03:46:53.693Z,9.08
2018-10-01T03:47:53.651Z,9.14
2018-10-01T03:48:53.640Z,9.08
2018-10-01T03:49:53.623Z,9.08
2018-10-01T03:50:53.619Z,9.06
2018-10-01T03:51:53.636Z,8.89
2018-10-01T03:52:53.608Z,8.91
2018-10-01T03:53:53.580Z,8.95
2018-10-01T03:54:53.598Z,8.94
2018-10-01T03:55:53.567Z,8.99
2018-10-01T03:56:53.560Z,8.92
2018-10-01T03:57:53.552Z,8.95
2018-10-01T03:58:53.533Z,8.88
2018-10-01T03:59:53.519Z,8.92
2018-10-01T04:00:53.501Z,8.79
2018-10-01T04:01:53.510Z,8.74
2018-10-01T04:02:53.520Z,8.79
2018-10-01T04:03:53.478Z,8.76
2018-10-01T04:04:53.489Z,8.66
2018-10-01T04:05:53.446Z,8.61
2018-10-01T04:06:53.466Z,8.64
2018-10-01T04:07:53.434Z,8.63
2018-10-01T04:08:53.460Z,8.64
2018-10-01T04:09:53.412Z,8.64
2018-10-01T04:10:53.481Z,8.64
2018-10-01T04:11:53.385Z,8.64
2018-10-01T04:12:53.399Z,8.61
2018-10-01T04:13:53.360Z,8.58
2018-10-01T04:14:53.341Z,8.52
2018-10-01T04:15:53.335Z,8.60
2018-10-01T04:16:53.336Z,8.61
2018-10-01T04:17:53.334Z,8.60
2018-10-01T04:18:53.300Z,8.58
2018-10-01T04:19:53.290Z,8.61
2018-10-01T04:20:53.273Z,8.63
2018-10-01T04:21:53.268Z,8.48
2018-10-01T04:22:53.299Z,8.48
2018-10-01T04:23:53.262Z,8.49
2018-10-01T04:24:53.234Z,8.48
2018-10-01T04:25:53.218Z,8.49
2018-10-01T04:26:53.213Z,8.41
2018-10-01T04:27:53.213Z,8.41
2018-10-01T04:28:53.209Z,8.42
2018-10-01T04:29:53.173Z,8.49
2018-10-01T04:30:53.168Z,8.48
2018-10-01T04:31:53.163Z,8.36
2018-10-01T04:32:53.160Z,8.41
2018-10-01T04:33:53.150Z,8.38
2018-10-01T04:34:53.152Z,8.44
2018-10-01T04:35:53.113Z,8.46
2018-10-01T04:36:53.100Z,8.41
2018-10-01T04:37:53.114Z,8.34
2018-10-01T04:38:53.074Z,8.37
2018-10-01T04:39:53.075Z,8.34
2018-10-01T04:40:53.050Z,8.38
2018-10-01T04:41:53.050Z,8.34
2018-10-01T04:42:53.029Z,8.36
2018-10-01T04:43:53.039Z,8.28
2018-10-01T04:44:53.016Z,8.38
2018-10-01T04:45:52.992Z,8.33
2018-10-01T04:46:53.066Z,8.30
2018-10-01T04:48:00.536Z,8.33
2018-10-01T04:48:52.972Z,8.38
2018-10-01T04:49:52.944Z,8.31
2018-10-01T04:50:52.934Z,8.28
2018-10-01T04:51:52.923Z,8.28
2018-10-01T04:52:52.908Z,8.27
2018-10-01T04:53:52.920Z,8.33
2018-10-01T04:54:52.887Z,8.33
2018-10-01T04:55:52.887Z,8.26
2018-10-01T04:56:52.864Z,8.30
2018-10-01T04:57:52.853Z,8.27
2018-10-01T04:58:52.863Z,8.28
2018-10-01T04:59:52.832Z,8.27
2018-10-01T05:00:52.819Z,8.16
2018-10-01T05:01:52.812Z,8.23
2018-10-01T05:02:52.803Z,8.26
2018-10-01T05:03:52.809Z,8.24
2018-10-01T05:04:52.775Z,8.27
2018-10-01T05:05:52.776Z,8.20
2018-10-01T05:06:52.751Z,8.20
2018-10-01T05:07:52.742Z,8.16
2018-10-01T05:08:52.728Z,8.16
2018-10-01T05:09:52.732Z,8.09
2018-10-01T05:10:52.711Z,8.15
2018-10-01T05:11:52.696Z,8.15
2018-10-01T05:12:52.686Z,8.20
2018-10-01T05:13:52.727Z,8.19
2018-10-01T05:14:52.771Z,8.13
2018-10-01T05:15:52.648Z,8.16
2018-10-01T05:16:52.654Z,8.20
2018-10-01T05:17:52.645Z,8.18
2018-10-01T05:18:52.617Z,8.13
2018-10-01T05:19:57.558Z,8.13
2018-10-01T05:20:52.829Z,8.13
2018-10-01T05:21:52.840Z,8.06
2018-10-01T05:22:52.808Z,8.10
2018-10-01T05:23:52.794Z,8.12
2018-10-01T05:24:52.798Z,8.09
2018-10-01T05:25:52.772Z,8.10
2018-10-01T05:26:52.771Z,8.18
2018-10-01T05:27:52.756Z,8.18
2018-10-01T05:28:52.742Z,8.15
2018-10-01T05:29:52.752Z,8.09
2018-10-01T05:30:52.723Z,8.05
2018-10-01T05:31:52.724Z,8.09
2018-10-01T05:32:52.703Z,8.09
2018-10-01T05:33:52.698Z,8.08
2018-10-01T05:34:52.695Z,8.01
2018-10-01T05:35:52.688Z,8.06
2018-10-01T05:36:52.656Z,8.01
2018-10-01T05:37:52.656Z,8.03
2018-10-01T05:38:52.640Z,8.08
2018-10-01T05:39:52.651Z,7.94
2018-10-01T05:40:52.607Z,8.01
2018-10-01T05:41:52.616Z,8.00
2018-10-01T05:42:52.589Z,7.95
2018-10-01T05:43:52.581Z,7.95
2018-10-01T05:44:52.564Z,8.01
2018-10-01T05:45:52.570Z,7.93
2018-10-01T05:46:52.545Z,8.00
2018-10-01T05:47:52.527Z,7.98
2018-10-01T05:48:52.534Z,7.94
2018-10-01T05:49:52.506Z,7.97
2018-10-01T05:50:52.510Z,7.94
2018-10-01T05:51:52.497Z,7.90
2018-10-01T05:52:52.477Z,7.91
2018-10-01T05:53:52.470Z,7.87
2018-10-01T05:54:52.452Z,7.90
2018-10-01T05:55:52.462Z,7.94
2018-10-01T05:56:52.429Z,7.82
2018-10-01T05:57:52.441Z,7.90
2018-10-01T05:58:52.418Z,7.87
2018-10-01T05:59:52.395Z,7.91
2018-10-01T06:00:52.402Z,7.82
2018-10-01T06:01:52.378Z,7.83
2018-10-01T06:02:52.495Z,7.90
2018-10-01T06:03:52.369Z,7.87
2018-10-01T06:04:52.452Z,7.90
2018-10-01T06:05:52.345Z,7.90
2018-10-01T06:06:52.318Z,7.79
2018-10-01T06:07:52.306Z,7.76
2018-10-01T06:09:00.115Z,7.90
2018-10-01T06:09:52.314Z,7.80
2018-10-01T06:10:52.314Z,7.88
2018-10-01T06:11:52.283Z,7.88
2018-10-01T06:12:52.298Z,7.82
2018-10-01T06:13:52.256Z,7.83
2018-10-01T06:15:41.253Z,7.82
2018-10-01T06:16:41.225Z,7.87
2018-10-01T06:17:41.190Z,7.77
2018-10-01T06:18:41.181Z,7.77
2018-10-01T06:19:41.166Z,7.87
2018-10-01T06:20:41.157Z,7.85
2018-10-01T06:21:41.167Z,7.93
2018-10-01T06:22:41.136Z,7.91
2018-10-01T06:23:41.131Z,7.82
2018-10-01T06:24:41.135Z,7.91
2018-10-01T06:25:41.105Z,7.85
2018-10-01T06:26:41.108Z,7.93
2018-10-01T06:27:41.097Z,7.87
2018-10-01T06:28:41.075Z,7.87
2018-10-01T06:29:41.061Z,7.94
2018-10-01T06:30:41.046Z,8.00
2018-10-01T06:31:41.063Z,8.01
2018-10-01T06:32:41.047Z,8.06
2018-10-01T06:33:41.017Z,8.03
2018-10-01T06:34:41.012Z,8.08
2018-10-01T06:35:41.006Z,8.05
2018-10-01T06:36:40.984Z,8.18
2018-10-01T06:37:40.985Z,8.18
2018-10-01T06:38:40.957Z,8.23
2018-10-01T06:39:40.969Z,8.24
2018-10-01T06:40:40.940Z,8.23
2018-10-01T06:41:40.994Z,8.26
2018-10-01T06:42:40.930Z,8.33
2018-10-01T06:43:40.904Z,8.30
2018-10-01T06:44:40.893Z,8.24
2018-10-01T06:45:40.879Z,8.33
2018-10-01T06:46:40.865Z,8.45
2018-10-01T06:47:40.884Z,8.37
2018-10-01T06:48:40.845Z,8.36
2018-10-01T06:49:40.862Z,8.44
2018-10-01T06:50:40.863Z,8.37
2018-10-01T06:51:40.818Z,8.38
2018-10-01T06:52:40.821Z,8.36
2018-10-01T06:53:40.789Z,8.37
2018-10-01T06:54:40.778Z,8.26
2018-10-01T06:55:40.776Z,8.37
2018-10-01T06:56:40.753Z,8.34
2018-10-01T06:57:40.767Z,8.41
2018-10-01T06:58:40.745Z,8.34
2018-10-01T06:59:40.726Z,8.30
2018-10-01T07:00:40.711Z,8.37
2018-10-01T07:01:40.710Z,8.31
2018-10-01T07:02:40.692Z,8.34
2018-10-01T07:03:40.691Z,8.30
2018-10-01T07:04:40.665Z,8.33
2018-10-01T07:05:40.758Z,8.27
2018-10-01T07:06:40.642Z,8.23
2018-10-01T07:07:40.646Z,8.23
2018-10-01T07:08:40.646Z,8.30
2018-10-01T07:09:40.623Z,8.27
2018-10-01T07:10:40.600Z,8.31
2018-10-01T07:11:40.725Z,8.27
2018-10-01T07:12:40.573Z,8.23
2018-10-01T07:13:40.586Z,8.26
2018-10-01T07:14:40.556Z,8.13
2018-10-01T07:15:40.545Z,8.20
2018-10-01T07:16:40.547Z,8.26
2018-10-01T07:17:40.526Z,8.31
2018-10-01T07:18:40.526Z,8.26
2018-10-01T07:19:40.504Z,8.26
2018-10-01T07:20:40.482Z,8.33
2018-10-01T07:21:40.483Z,8.34
2018-10-01T07:22:40.600Z,8.36
2018-10-01T07:23:40.484Z,8.42
2018-10-01T07:24:40.478Z,8.44
2018-10-01T07:25:40.434Z,8.49
2018-10-01T07:26:40.422Z,8.48
2018-10-01T07:27:40.406Z,8.45
2018-10-01T07:28:40.396Z,8.42
2018-10-01T07:29:40.394Z,8.49
2018-10-01T07:30:40.378Z,8.55
2018-10-01T07:31:40.364Z,8.61
2018-10-01T07:32:40.367Z,8.66
2018-10-01T07:33:40.354Z,8.74
2018-10-01T07:34:40.344Z,8.76
2018-10-01T07:35:40.332Z,8.76
2018-10-01T07:36:40.308Z,8.87
2018-10-01T07:37:40.296Z,8.92
2018-10-01T07:38:40.282Z,8.89
2018-10-01T07:39:40.288Z,8.95
2018-10-01T07:40:40.271Z,8.99
2018-10-01T07:41:40.261Z,9.11
2018-10-01T07:42:40.240Z,9.08
2018-10-01T07:43:40.233Z,9.10
2018-10-01T07:44:40.232Z,9.08
2018-10-01T07:45:40.216Z,9.19
2018-10-01T07:46:40.196Z,9.21
2018-10-01T07:47:40.180Z,9.18
2018-10-01T07:48:40.188Z,9.25
2018-10-01T07:49:40.240Z,9.25
2018-10-01T07:50:40.247Z,9.34
2018-10-01T07:51:40.150Z,9.39
2018-10-01T07:52:40.131Z,9.40
2018-10-01T07:53:40.110Z,9.47
2018-10-01T07:54:40.123Z,9.50
2018-10-01T07:55:40.090Z,9.54
2018-10-01T07:56:40.082Z,9.50
2018-10-01T07:57:40.077Z,9.66
2018-10-01T07:58:40.055Z,9.59
2018-10-01T07:59:40.165Z,9.76
2018-10-01T08:00:40.057Z,9.72
2018-10-01T08:01:40.021Z,9.77
2018-10-01T08:02:40.173Z,9.82
2018-10-01T08:03:40.011Z,9.91
2018-10-01T08:04:39.990Z,9.92
2018-10-01T08:05:40.006Z,9.89
2018-10-01T08:06:39.962Z,9.94
2018-10-01T08:07:39.958Z,9.84
2018-10-01T08:08:40.010Z,9.87
2018-10-01T08:09:39.932Z,9.92
2018-10-01T08:10:39.930Z,9.98
2018-10-01T08:11:39.931Z,10.04
2018-10-01T08:12:39.895Z,10.09
2018-10-01T08:13:39.891Z,10.10
2018-10-01T08:14:39.932Z,10.22
2018-10-01T08:15:39.911Z,10.34
2018-10-01T08:16:39.874Z,10.51
2018-10-01T08:17:39.844Z,10.71
2018-10-01T08:18:39.826Z,10.81
2018-10-01T08:19:39.820Z,10.90
2018-10-01T08:20:39.910Z,11.00
2018-10-01T08:21:39.813Z,11.05
2018-10-01T08:22:39.785Z,11.00
2018-10-01T08:23:39.899Z,11.11
2018-10-01T08:24:39.769Z,11.33
2018-10-01T08:25:39.750Z,11.35
2018-10-01T08:26:39.806Z,11.40
2018-10-01T08:27:39.738Z,11.50
2018-10-01T08:28:39.726Z,11.52
2018-10-01T08:29:39.800Z,11.62
2018-10-01T08:30:39.699Z,11.88
2018-10-01T08:31:39.685Z,12.25
2018-10-01T08:32:39.771Z,12.40
2018-10-01T08:33:39.663Z,12.36
2018-10-01T08:34:39.650Z,12.37
2018-10-01T08:35:39.701Z,12.37
2018-10-01T08:36:39.630Z,12.20
2018-10-01T08:37:39.632Z,12.06
2018-10-01T08:38:39.668Z,12.03
2018-10-01T08:39:39.606Z,12.04
2018-10-01T08:40:39.596Z,12.06
2018-10-01T08:41:39.572Z,12.20
2018-10-01T08:42:39.582Z,12.45
2018-10-01T08:43:39.563Z,12.46
2018-10-01T08:44:39.684Z,12.70
2018-10-01T08:45:39.531Z,12.76
2018-10-01T08:46:39.528Z,12.70
2018-10-01T08:47:39.551Z,12.67
2018-10-01T08:48:39.496Z,12.78
2018-10-01T08:49:39.483Z,12.79
2018-10-01T08:50:39.473Z,12.80
2018-10-01T08:51:39.521Z,12.79
2018-10-01T08:52:39.447Z,12.83
2018-10-01T08:53:39.627Z,12.79
2018-10-01T08:54:39.427Z,12.64
2018-10-01T08:55:39.410Z,12.60
2018-10-01T08:56:39.403Z,12.49
2018-10-01T08:57:39.458Z,12.50
2018-10-01T08:58:39.415Z,12.54
2018-10-01T08:59:39.418Z,12.54
2018-10-01T09:00:39.363Z,12.62
2018-10-01T09:01:39.384Z,12.79
2018-10-01T09:02:39.421Z,12.79
2018-10-01T09:03:39.363Z,12.85
2018-10-01T09:04:39.312Z,12.78
2018-10-01T09:05:39.315Z,12.78
2018-10-01T09:06:39.307Z,12.60
2018-10-01T09:07:39.279Z,12.54
2018-10-01T09:08:39.265Z,12.49
2018-10-01T09:09:39.273Z,12.57
2018-10-01T09:10:39.241Z,12.68
2018-10-01T09:11:39.237Z,12.80
2018-10-01T09:12:39.214Z,13.05
2018-10-01T09:13:39.205Z,13.20
2018-10-01T09:14:39.270Z,13.27
2018-10-01T09:15:39.190Z,13.13
2018-10-01T09:16:39.181Z,13.08
2018-10-01T09:17:39.171Z,12.85
2018-10-01T09:18:39.147Z,12.75
2018-10-01T09:19:39.153Z,12.55
2018-10-01T09:20:39.135Z,12.45
2018-10-01T09:21:39.193Z,12.37
2018-10-01T09:22:39.110Z,12.24
2018-10-01T09:23:39.154Z,12.28
2018-10-01T09:24:39.106Z,12.43
2018-10-01T09:25:39.082Z,12.36
2018-10-01T09:26:39.187Z,12.45
2018-10-01T09:27:39.043Z,12.55
2018-10-01T09:28:39.045Z,12.53
2018-10-01T09:29:39.083Z,12.55
2018-10-01T09:30:39.007Z,12.70
2018-10-01T09:31:39.004Z,12.76
2018-10-01T09:32:39.015Z,12.70
2018-10-01T09:33:38.975Z,12.82
2018-10-01T09:34:38.992Z,12.67
2018-10-01T09:35:38.992Z,12.65
2018-10-01T09:36:38.946Z,12.70
2018-10-01T09:37:38.933Z,12.57
2018-10-01T09:38:38.974Z,12.49
2018-10-01T09:39:38.924Z,12.45
2018-10-01T09:40:38.988Z,12.46
2018-10-01T09:41:38.894Z,12.47
2018-10-01T09:42:38.874Z,12.49
2018-10-01T09:43:38.860Z,12.49
2018-10-01T09:44:38.935Z,12.54
2018-10-01T09:45:38.860Z,12.50
2018-10-01T09:46:38.838Z,12.57
2018-10-01T09:47:38.864Z,12.50
2018-10-01T09:48:38.808Z,12.55
2018-10-01T09:49:38.801Z,12.55
2018-10-01T09:50:38.855Z,12.57
2018-10-01T09:51:38.788Z,12.53
2018-10-01T09:52:38.760Z,12.68
2018-10-01T09:53:38.802Z,12.80
2018-10-01T09:54:38.735Z,12.93
2018-10-01T09:55:38.757Z,12.95
2018-10-01T09:56:38.724Z,12.95
2018-10-01T09:57:38.734Z,12.83
2018-10-01T09:58:38.744Z,12.64
2018-10-01T09:59:38.684Z,12.65
2018-10-01T10:00:38.679Z,12.53
2018-10-01T10:01:38.692Z,12.50
2018-10-01T10:02:38.736Z,12.47
2018-10-01T10:03:38.651Z,12.55
2018-10-01T10:04:38.810Z,12.36
2018-10-01T10:05:38.642Z,12.35
2018-10-01T10:06:38.618Z,12.29
2018-10-01T10:07:38.590Z,12.20
2018-10-01T10:08:38.671Z,12.18
2018-10-01T10:09:38.572Z,12.18
2018-10-01T10:10:38.559Z,12.15
2018-10-01T10:11:38.555Z,12.20
2018-10-01T10:12:38.537Z,12.18
2018-10-01T10:13:38.528Z,12.21
2018-10-01T10:14:38.524Z,12.15
2018-10-01T10:15:38.500Z,12.29
2018-10-01T10:16:38.583Z,12.29
2018-10-01T10:17:38.485Z,12.45
2018-10-01T10:18:38.470Z,12.45
2018-10-01T10:19:38.455Z,12.49
2018-10-01T10:20:38.553Z,12.70
2018-10-01T10:21:38.468Z,12.86
2018-10-01T10:22:38.486Z,13.11
2018-10-01T10:23:38.409Z,13.33
2018-10-01T10:24:38.398Z,13.47
2018-10-01T10:25:38.406Z,13.57
2018-10-01T10:26:38.383Z,13.56
2018-10-01T10:27:38.377Z,13.68
2018-10-01T10:28:38.464Z,13.90
2018-10-01T10:29:38.365Z,13.99
2018-10-01T10:30:38.337Z,14.00
2018-10-01T10:31:38.332Z,13.86
2018-10-01T10:32:38.370Z,13.68
2018-10-01T10:33:38.308Z,13.57
2018-10-01T10:34:38.307Z,13.37
2018-10-01T10:35:38.270Z,13.31
2018-10-01T10:36:38.263Z,13.38
2018-10-01T10:37:38.274Z,13.46
2018-10-01T10:38:38.280Z,13.68
2018-10-01T10:39:38.258Z,13.99
2018-10-01T10:40:38.221Z,14.50
2018-10-01T10:41:38.262Z,14.41
2018-10-01T10:42:38.210Z,14.22
2018-10-01T10:43:38.180Z,14.08
2018-10-01T10:44:38.296Z,14.07
2018-10-01T10:45:38.169Z,14.04
2018-10-01T10:46:38.150Z,13.92
2018-10-01T10:47:38.147Z,13.86
2018-10-01T10:48:38.120Z,13.78
2018-10-01T10:49:38.110Z,13.63
2018-10-01T10:50:38.263Z,13.50
2018-10-01T10:51:38.093Z,13.27
2018-10-01T10:52:38.104Z,13.11
2018-10-01T10:53:38.072Z,12.79
2018-10-01T10:54:38.056Z,12.43
2018-10-01T10:55:38.042Z,11.88
2018-10-01T10:56:38.052Z,11.37
2018-10-01T10:57:38.050Z,11.14
2018-10-01T10:58:38.014Z,10.93
2018-10-01T10:59:46.546Z,10.76
2018-10-01T11:00:37.982Z,10.59
2018-10-01T11:01:37.972Z,10.40
2018-10-01T11:02:38.015Z,10.23
2018-10-01T11:03:37.961Z,10.20
2018-10-01T11:04:45.044Z,10.07
2018-10-01T11:05:37.929Z,10.10
2018-10-01T11:06:37.917Z,10.09
2018-10-01T11:07:37.904Z,10.05
2018-10-01T11:08:37.995Z,10.16
2018-10-01T11:09:37.882Z,10.37
2018-10-01T11:10:37.870Z,10.61
2018-10-01T11:11:37.863Z,10.82
2018-10-01T11:12:37.854Z,11.10
2018-10-01T11:13:37.855Z,11.33
2018-10-01T11:14:37.951Z,11.59
2018-10-01T11:15:37.820Z,11.80
2018-10-01T11:16:37.816Z,12.12
2018-10-01T11:17:37.829Z,12.40
2018-10-01T11:18:38.026Z,12.79
2018-10-01T11:19:37.773Z,12.97
2018-10-01T11:20:37.782Z,12.78
2018-10-01T11:21:37.839Z,12.83
2018-10-01T11:22:37.745Z,12.97
2018-10-01T11:23:37.738Z,13.18
2018-10-01T11:24:37.730Z,13.19
2018-10-01T11:25:37.831Z,13.33
2018-10-01T11:26:37.710Z,13.33
2018-10-01T11:27:37.692Z,13.50
2018-10-01T11:28:37.675Z,13.63
2018-10-01T11:29:37.683Z,13.77
2018-10-01T11:30:37.648Z,13.83
2018-10-01T11:31:37.760Z,13.96
2018-10-01T11:32:37.627Z,14.04
2018-10-01T11:33:37.640Z,14.29
2018-10-01T11:34:37.771Z,14.29
2018-10-01T11:35:37.607Z,14.11
2018-10-01T11:36:37.578Z,14.18
2018-10-01T11:37:37.579Z,14.40
2018-10-01T11:38:37.556Z,14.59
2018-10-01T11:39:37.617Z,14.65
2018-10-01T11:40:37.531Z,14.77
2018-10-01T11:41:37.532Z,14.55
2018-10-01T11:42:37.514Z,14.36
2018-10-01T11:43:37.512Z,14.07
2018-10-01T11:44:37.522Z,13.79
2018-10-01T11:45:37.546Z,13.47
2018-10-01T11:46:37.500Z,13.11
2018-10-01T11:47:37.453Z,12.57
2018-10-01T11:48:37.441Z,12.17
2018-10-01T11:49:37.451Z,11.94
2018-10-01T11:50:37.454Z,11.70
2018-10-01T11:51:37.524Z,11.59
2018-10-01T11:52:37.420Z,11.40
2018-10-01T11:53:37.399Z,11.07
2018-10-01T11:54:37.385Z,11.07
2018-10-01T11:55:37.380Z,10.94
2018-10-01T11:56:37.363Z,10.86
2018-10-01T11:57:37.467Z,10.87
2018-10-01T11:58:37.329Z,10.60
2018-10-01T11:59:37.325Z,10.46
2018-10-01T12:00:37.325Z,10.22
2018-10-01T12:01:37.334Z,10.04
2018-10-01T12:02:37.284Z,9.80
2018-10-01T12:03:37.378Z,9.80
2018-10-01T12:04:37.260Z,9.76
2018-10-01T12:05:37.281Z,9.69
2018-10-01T12:06:37.258Z,9.72
2018-10-01T12:07:37.229Z,9.79
2018-10-01T12:08:37.221Z,9.79
2018-10-01T12:09:37.265Z,9.83
2018-10-01T12:10:37.287Z,9.77
2018-10-01T12:11:37.202Z,9.72
2018-10-01T12:12:37.179Z,9.80
2018-10-01T12:13:37.154Z,10.05
2018-10-01T12:14:37.178Z,10.28
2018-10-01T12:15:37.255Z,10.64
2018-10-01T12:16:37.139Z,10.97
2018-10-01T12:17:37.115Z,11.22
2018-10-01T12:18:37.113Z,11.47
2018-10-01T12:19:37.088Z,11.55
2018-10-01T12:20:37.085Z,11.52
2018-10-01T12:21:37.265Z,11.62
2018-10-01T12:22:37.058Z,11.84
2018-10-01T12:23:37.042Z,11.94
2018-10-01T12:24:37.032Z,12.10
2018-10-01T12:25:37.021Z,11.94
2018-10-01T12:26:37.028Z,12.07
2018-10-01T12:27:37.039Z,12.29
2018-10-01T12:28:36.997Z,12.53
2018-10-01T12:29:36.980Z,12.65
2018-10-01T12:30:36.968Z,12.79
2018-10-01T12:31:36.950Z,12.68
2018-10-01T12:32:36.956Z,12.53
2018-10-01T12:33:36.977Z,12.45
2018-10-01T12:34:36.924Z,12.37
2018-10-01T12:35:36.944Z,12.37
2018-10-01T12:36:36.953Z,12.09
2018-10-01T12:37:36.909Z,11.95
2018-10-01T12:38:36.871Z,11.77
2018-10-01T12:39:36.917Z,11.63
2018-10-01T12:40:36.870Z,11.52
2018-10-01T12:41:36.839Z,11.51
2018-10-01T12:42:36.856Z,11.40
2018-10-01T12:43:36.821Z,11.27
2018-10-01T12:44:36.807Z,11.10
2018-10-01T12:45:36.895Z,10.96
2018-10-01T12:46:36.792Z,10.78
2018-10-01T12:47:36.799Z,10.61
2018-10-01T12:48:36.757Z,10.46
2018-10-01T12:49:36.755Z,10.44
2018-10-01T12:50:36.775Z,10.48
2018-10-01T12:51:36.867Z,10.49
2018-10-01T12:52:36.804Z,10.46
2018-10-01T12:53:36.702Z,10.42
2018-10-01T12:54:36.702Z,10.46
2018-10-01T12:55:36.684Z,10.42
2018-10-01T12:56:36.701Z,10.46
2018-10-01T12:57:36.847Z,10.53
2018-10-01T12:58:36.643Z,10.56
2018-10-01T12:59:36.684Z,10.59
2018-10-01T13:00:36.621Z,10.60
2018-10-01T13:01:36.626Z,10.75
2018-10-01T13:02:36.790Z,10.75
2018-10-01T13:03:36.587Z,10.90
2018-10-01T13:04:36.601Z,10.86